createdAt,value
2023-03-12T01:05:26.581Z,5.50
2023-03-12T01:06:00.538Z,5.50
2023-03-12T01:06:35.243Z,5.50
2023-03-12T01:07:08.523Z,5.50
2023-03-12T01:07:42.470Z,5.50
2023-03-12T01:08:18.763Z,5.50
2023-03-12T01:08:56.058Z,5.50
2023-03-12T01:09:31.061Z,5.50
2023-03-12T01:10:04.598Z,5.50
2023-03-12T01:10:42.185Z,5.50
2023-03-12T01:11:19.209Z,5.50
2023-03-12T01:11:53.685Z,5.50
2023-03-12T01:12:27.730Z,5.50
2023-03-12T01:13:02.629Z,5.60
2023-03-12T01:13:37.073Z,5.60
2023-03-12T01:14:11.100Z,5.60
2023-03-12T01:14:46.066Z,5.60
2023-03-12T01:15:20.467Z,5.60
2023-03-12T01:15:53.896Z,5.60
2023-03-12T01:16:30.291Z,5.60
2023-03-12T01:17:04.833Z,5.60
2023-03-12T01:17:39.364Z,5.60
2023-03-12T01:18:13.181Z,5.50
2023-03-12T01:18:47.665Z,5.60
2023-03-12T01:19:21.507Z,5.60
2023-03-12T01:19:55.729Z,5.60
2023-03-12T01:20:30.690Z,5.60
2023-03-12T01:21:04.644Z,5.60
2023-03-12T01:21:40.414Z,5.60
2023-03-12T01:22:14.456Z,5.60
2023-03-12T01:22:48.874Z,5.60
2023-03-12T01:23:24.155Z,5.60
2023-03-12T01:24:00.216Z,5.70
2023-03-12T01:24:34.809Z,5.70
2023-03-12T01:25:11.381Z,5.70
2023-03-12T01:25:45.079Z,5.70
2023-03-12T01:26:21.051Z,5.70
2023-03-12T01:26:55.458Z,5.70
2023-03-12T01:27:29.936Z,5.70
2023-03-12T01:28:06.628Z,5.70
2023-03-12T01:28:40.307Z,5.70
2023-03-12T01:29:14.733Z,5.70
2023-03-12T01:29:49.578Z,5.70
2023-03-12T01:30:24.388Z,5.70
2023-03-12T01:30:59.188Z,5.70
2023-03-12T01:31:32.618Z,5.70
2023-03-12T01:32:09.281Z,5.80
2023-03-12T01:32:43.738Z,5.80
2023-03-12T01:33:17.655Z,5.80
2023-03-12T01:33:53.570Z,5.80
2023-03-12T01:34:27.832Z,5.80
2023-03-12T01:35:02.305Z,5.90
2023-03-12T01:35:40.083Z,5.80
2023-03-12T01:36:20.372Z,5.80
2023-03-12T01:36:56.048Z,5.80
2023-03-12T01:37:34.632Z,5.80
2023-03-12T01:38:08.998Z,5.90
2023-03-12T01:38:42.991Z,5.90
2023-03-12T01:39:18.464Z,5.90
2023-03-12T01:39:53.148Z,5.90
2023-03-12T01:40:29.044Z,5.90
2023-03-12T01:41:04.501Z,5.90
2023-03-12T01:41:38.374Z,5.90
2023-03-12T01:42:11.756Z,5.90
2023-03-12T01:42:53.394Z,5.90
2023-03-12T01:43:29.516Z,5.90
2023-03-12T01:44:05.483Z,5.90
2023-03-12T01:44:55.948Z,5.90
2023-03-12T01:45:59.779Z,5.90
2023-03-12T01:46:36.879Z,5.90
2023-03-12T01:47:35.749Z,5.90
2023-03-12T01:48:15.579Z,5.90
2023-03-12T01:48:54.251Z,5.90
2023-03-12T01:49:33.856Z,5.90
2023-03-12T01:50:08.482Z,5.90
2023-03-12T01:50:42.876Z,5.90
2023-03-12T01:51:19.774Z,5.90
2023-03-12T01:52:00.554Z,5.90
2023-03-12T01:52:39.967Z,5.90
2023-03-12T01:53:13.614Z,6.00
2023-03-12T01:53:51.171Z,6.00
2023-03-12T01:54:32.243Z,6.00
2023-03-12T01:55:10.779Z,6.00
2023-03-12T01:55:47.829Z,6.00
2023-03-12T01:56:23.737Z,6.00
2023-03-12T01:56:57.697Z,6.00
2023-03-12T01:57:37.287Z,6.00
2023-03-12T01:58:15.976Z,6.00
2023-03-12T01:58:52.893Z,6.00
2023-03-12T01:59:32.647Z,6.00
2023-03-12T02:00:10.466Z,6.00
2023-03-12T02:00:47.990Z,6.00
2023-03-12T02:01:24.242Z,6.00
2023-03-12T02:01:58.224Z,6.00
2023-03-12T02:02:33.700Z,6.00
2023-03-12T02:03:09.519Z,6.00
2023-03-12T02:03:47.830Z,6.00
2023-03-12T02:04:27.304Z,6.10
2023-03-12T02:05:08.806Z,6.10
2023-03-12T02:05:46.899Z,6.10
2023-03-12T02:06:25.361Z,6.10
2023-03-12T02:07:05.289Z,6.10
2023-03-12T02:07:40.355Z,6.20
2023-03-12T02:08:15.294Z,6.20
2023-03-12T02:08:50.002Z,6.20
2023-03-12T02:09:24.791Z,6.20
2023-03-12T02:09:59.802Z,6.20
2023-03-12T02:10:33.584Z,6.20
2023-03-12T02:11:07.950Z,6.20
2023-03-12T02:11:40.975Z,6.20
2023-03-12T02:12:15.064Z,6.20
2023-03-12T02:12:49.210Z,6.30
2023-03-12T02:13:23.071Z,6.20
2023-03-12T02:13:57.016Z,6.20
2023-03-12T02:14:31.392Z,6.20
2023-03-12T02:15:07.535Z,6.30
2023-03-12T02:15:40.706Z,6.30
2023-03-12T02:16:14.972Z,6.30
2023-03-12T02:16:48.505Z,6.30
2023-03-12T02:17:23.336Z,6.30
2023-03-12T02:17:57.921Z,6.30
2023-03-12T02:18:34.034Z,6.30
2023-03-12T02:19:18.637Z,6.30
2023-03-12T02:20:01.423Z,6.30
2023-03-12T02:20:43.138Z,6.30
2023-03-12T02:21:21.059Z,6.30
2023-03-12T02:21:54.558Z,6.30
2023-03-12T02:22:30.271Z,6.30
2023-03-12T02:23:09.916Z,6.30
2023-03-12T02:23:52.679Z,6.30
2023-03-12T02:24:35.112Z,6.30
2023-03-12T02:25:31.482Z,6.30
2023-03-12T02:26:07.712Z,6.40
2023-03-12T02:26:43.385Z,6.40
2023-03-12T02:27:18.809Z,6.40
2023-03-12T02:27:53.706Z,6.40
2023-03-12T02:28:30.109Z,6.40
2023-03-12T02:29:03.839Z,6.40
2023-03-12T02:29:42.759Z,6.40
2023-03-12T02:30:19.104Z,6.50
2023-03-12T02:30:58.768Z,6.50
2023-03-12T02:31:40.573Z,6.50
2023-03-12T02:32:20.982Z,6.50
2023-03-12T02:32:56.695Z,6.50
2023-03-12T02:33:30.792Z,6.50
2023-03-12T02:34:04.808Z,6.50
2023-03-12T02:34:38.136Z,6.50
2023-03-12T02:35:13.853Z,6.50
2023-03-12T02:35:49.077Z,6.60
2023-03-12T02:36:23.634Z,6.50
2023-03-12T02:36:58.774Z,6.50
2023-03-12T02:37:33.842Z,6.60
2023-03-12T02:38:39.691Z,6.50
2023-03-12T02:39:15.061Z,6.60
2023-03-12T02:39:56.609Z,6.60
2023-03-12T02:40:37.287Z,6.60
2023-03-12T02:41:16.414Z,6.50
2023-03-12T02:41:53.896Z,6.50
2023-03-12T02:42:28.237Z,6.50
2023-03-12T02:43:03.118Z,6.50
2023-03-12T02:43:37.105Z,6.50
2023-03-12T02:44:14.006Z,6.50
2023-03-12T02:44:48.372Z,6.50
2023-03-12T02:45:22.465Z,6.50
2023-03-12T02:45:57.196Z,6.50
2023-03-12T02:46:34.032Z,6.50
2023-03-12T02:47:08.471Z,6.50
2023-03-12T02:47:42.597Z,6.60
2023-03-12T02:48:16.500Z,6.50
2023-03-12T02:48:50.051Z,6.50
2023-03-12T02:49:26.146Z,6.50
2023-03-12T02:50:00.110Z,6.60
2023-03-12T02:50:34.306Z,6.60
2023-03-12T02:51:10.555Z,6.60
2023-03-12T02:51:45.499Z,6.60
2023-03-12T02:52:18.061Z,6.60
2023-03-12T02:52:53.824Z,6.60
2023-03-12T02:53:27.222Z,6.60
2023-03-12T02:54:02.170Z,6.60
2023-03-12T02:54:36.419Z,6.60
2023-03-12T02:55:10.618Z,6.70
2023-03-12T02:55:45.988Z,6.60
2023-03-12T02:56:21.219Z,6.60
2023-03-12T02:56:54.659Z,6.60
2023-03-12T02:57:48.305Z,6.60
2023-03-12T02:58:30.758Z,6.70
2023-03-12T02:59:05.819Z,6.70
2023-03-12T02:59:43.952Z,6.70
2023-03-12T03:00:19.976Z,6.70
2023-03-12T03:00:57.305Z,6.70
2023-03-12T03:01:34.480Z,6.70
2023-03-12T03:02:10.263Z,6.80
2023-03-12T03:02:45.155Z,6.80
2023-03-12T03:03:18.629Z,6.80
2023-03-12T03:03:54.163Z,6.80
2023-03-12T03:04:30.562Z,6.80
2023-03-12T03:05:04.970Z,6.70
2023-03-12T03:05:40.138Z,6.70
2023-03-12T03:06:13.739Z,6.70
2023-03-12T03:06:48.943Z,6.70
2023-03-12T03:07:24.322Z,6.60
2023-03-12T03:07:58.314Z,6.60
2023-03-12T03:08:32.634Z,6.60
2023-03-12T03:09:07.819Z,6.60
2023-03-12T03:09:41.344Z,6.60
2023-03-12T03:10:15.871Z,6.60
2023-03-12T03:10:56.366Z,6.60
2023-03-12T03:11:30.797Z,6.60
2023-03-12T03:12:09.167Z,6.60
2023-03-12T03:12:44.370Z,6.50
2023-03-12T03:13:17.860Z,6.50
2023-03-12T03:13:53.542Z,6.50
2023-03-12T03:14:28.088Z,6.50
2023-03-12T03:15:02.876Z,6.50
2023-03-12T03:15:38.936Z,6.50
2023-03-12T03:16:14.088Z,6.50
2023-03-12T03:16:48.780Z,6.50
2023-03-12T03:17:24.577Z,6.50
2023-03-12T03:17:59.249Z,6.60
2023-03-12T03:18:33.698Z,6.50
2023-03-12T03:19:06.622Z,6.50
2023-03-12T03:19:41.170Z,6.60
2023-03-12T03:20:16.680Z,6.60
2023-03-12T03:20:58.031Z,6.60
2023-03-12T03:21:35.064Z,6.60
2023-03-12T03:22:08.712Z,6.60
2023-03-12T03:22:42.218Z,6.60
2023-03-12T03:23:16.530Z,6.60
2023-03-12T03:23:51.848Z,6.60
2023-03-12T03:24:24.965Z,6.60
2023-03-12T03:25:00.731Z,6.60
2023-03-12T03:25:34.596Z,6.60
2023-03-12T03:26:10.068Z,6.70
2023-03-12T03:26:44.851Z,6.70
2023-03-12T03:27:19.400Z,6.70
2023-03-12T03:27:53.281Z,6.70
2023-03-12T03:28:29.367Z,6.70
2023-03-12T03:29:04.224Z,6.70
2023-03-12T03:29:37.972Z,6.70
2023-03-12T03:30:14.064Z,6.70
2023-03-12T03:30:54.075Z,6.70
2023-03-12T03:31:27.912Z,6.70
2023-03-12T03:32:02.061Z,6.70
2023-03-12T03:32:36.076Z,6.70
2023-03-12T03:33:10.226Z,6.70
2023-03-12T03:33:46.619Z,6.80
2023-03-12T03:34:20.807Z,6.70
2023-03-12T03:34:54.393Z,6.80
2023-03-12T03:35:29.684Z,6.80
2023-03-12T03:36:03.473Z,6.80
2023-03-12T03:36:38.873Z,6.80
2023-03-12T03:37:18.549Z,6.90
2023-03-12T03:37:53.322Z,6.90
2023-03-12T03:38:27.840Z,6.90
2023-03-12T03:39:02.824Z,6.90
2023-03-12T03:39:37.460Z,6.90
2023-03-12T03:40:12.461Z,6.90
2023-03-12T03:40:48.068Z,6.90
2023-03-12T03:41:23.823Z,6.90
2023-03-12T03:41:56.958Z,6.90
2023-03-12T03:42:34.375Z,6.80
2023-03-12T03:43:07.357Z,6.80
2023-03-12T03:43:41.958Z,6.80
2023-03-12T03:44:18.271Z,6.80
2023-03-12T03:44:51.217Z,6.90
2023-03-12T03:45:25.913Z,6.90
2023-03-12T03:46:03.679Z,6.90
2023-03-12T03:46:40.980Z,6.90
2023-03-12T03:47:16.521Z,6.90
2023-03-12T03:47:51.547Z,6.90
2023-03-12T03:48:25.624Z,7.00
2023-03-12T03:49:00.664Z,7.00
2023-03-12T03:49:35.925Z,7.00
2023-03-12T03:50:15.049Z,7.00
2023-03-12T03:50:48.655Z,7.00
2023-03-12T03:51:21.934Z,7.00
2023-03-12T03:52:00.972Z,6.90
2023-03-12T03:52:40.216Z,6.90
2023-03-12T03:53:13.754Z,6.90
2023-03-12T03:53:47.965Z,6.80
2023-03-12T03:54:22.039Z,6.90
2023-03-12T03:54:57.607Z,6.90
2023-03-12T03:55:32.527Z,6.90
2023-03-12T03:56:11.033Z,6.90
2023-03-12T03:56:49.050Z,6.90
2023-03-12T03:57:24.175Z,6.90
2023-03-12T03:57:58.334Z,6.90
2023-03-12T03:58:32.223Z,6.90
2023-03-12T03:59:07.229Z,6.90
2023-03-12T03:59:45.015Z,6.90
2023-03-12T04:00:20.100Z,6.90
2023-03-12T04:00:57.136Z,6.90
2023-03-12T04:01:31.467Z,6.90
2023-03-12T04:02:07.794Z,6.90
2023-03-12T04:02:45.994Z,6.90
2023-03-12T04:03:21.952Z,6.90
2023-03-12T04:03:55.409Z,6.90
2023-03-12T04:04:29.309Z,6.90
2023-03-12T04:05:05.319Z,6.90
2023-03-12T04:05:38.894Z,6.90
2023-03-12T04:06:13.218Z,6.90
2023-03-12T04:06:48.511Z,6.90
2023-03-12T04:07:22.592Z,6.90
2023-03-12T04:07:56.283Z,6.90
2023-03-12T04:08:33.691Z,6.90
2023-03-12T04:09:08.262Z,6.90
2023-03-12T04:09:44.136Z,7.00
2023-03-12T04:10:18.889Z,6.90
2023-03-12T04:10:54.099Z,6.90
2023-03-12T04:11:29.344Z,6.90
2023-03-12T04:12:08.068Z,6.90
2023-03-12T04:12:46.187Z,6.90
2023-03-12T04:13:20.384Z,6.90
2023-03-12T04:13:54.015Z,6.90
2023-03-12T04:14:32.051Z,6.90
2023-03-12T04:15:06.781Z,6.90
2023-03-12T04:15:46.296Z,6.90
2023-03-12T04:16:20.796Z,7.00
2023-03-12T04:16:55.871Z,7.00
2023-03-12T04:17:30.075Z,7.00
2023-03-12T04:18:07.544Z,7.00
2023-03-12T04:18:41.753Z,7.00
2023-03-12T04:19:16.371Z,7.00
2023-03-12T04:19:51.064Z,7.00
2023-03-12T04:20:25.160Z,7.00
2023-03-12T04:20:58.751Z,7.00
2023-03-12T04:21:33.164Z,7.00
2023-03-12T04:22:07.676Z,7.00
2023-03-12T04:22:42.871Z,7.00
2023-03-12T04:23:17.473Z,7.00
2023-03-12T04:23:51.974Z,7.00
2023-03-12T04:24:28.958Z,7.00
2023-03-12T04:25:02.457Z,7.00
2023-03-12T04:25:36.632Z,7.00
2023-03-12T04:26:11.278Z,7.00
2023-03-12T04:26:46.383Z,7.00
2023-03-12T04:27:23.625Z,6.90
2023-03-12T04:27:57.562Z,7.00
2023-03-12T04:28:31.793Z,7.00
2023-03-12T04:29:06.523Z,7.00
2023-03-12T04:29:40.912Z,7.00
2023-03-12T04:30:16.753Z,7.00
2023-03-12T04:30:59.746Z,7.00
2023-03-12T04:31:38.027Z,7.00
2023-03-12T04:32:12.741Z,7.00
2023-03-12T04:32:48.396Z,7.10
2023-03-12T04:33:22.293Z,7.10
2023-03-12T04:33:56.633Z,7.10
2023-03-12T04:34:32.952Z,7.10
2023-03-12T07:10:12.305Z,8.70
2023-03-12T07:10:45.977Z,8.70
2023-03-12T07:11:21.911Z,8.70
2023-03-12T07:11:56.452Z,8.70
2023-03-12T07:12:30.931Z,8.70
2023-03-12T07:13:06.426Z,8.70
2023-03-12T07:13:40.344Z,8.70
2023-03-12T07:14:14.915Z,8.70
2023-03-12T07:14:52.028Z,8.70
2023-03-12T07:15:25.086Z,8.70
2023-03-12T07:15:58.408Z,8.60
2023-03-12T07:16:33.166Z,8.70
2023-03-12T07:17:07.039Z,8.70
2023-03-12T07:17:40.591Z,8.70
2023-03-12T07:18:15.134Z,8.70
2023-03-12T07:18:49.138Z,8.70
2023-03-12T07:19:24.172Z,8.80
2023-03-12T07:19:59.116Z,8.80
2023-03-12T07:20:32.935Z,8.80
2023-03-12T07:21:08.745Z,8.80
2023-03-12T07:21:43.247Z,8.80
2023-03-12T07:22:17.415Z,8.90
2023-03-12T07:22:51.790Z,8.90
2023-03-12T07:23:25.850Z,8.90
2023-03-12T07:24:01.089Z,8.90
2023-03-12T07:24:34.995Z,8.90
2023-03-12T07:25:10.607Z,9.00
2023-03-12T07:25:45.683Z,9.00
2023-03-12T07:26:19.823Z,9.00
2023-03-12T07:26:54.256Z,9.00
2023-03-12T07:27:28.685Z,9.00
2023-03-12T07:28:04.226Z,9.10
2023-03-12T07:28:38.303Z,9.10
2023-03-12T07:29:13.924Z,9.10
2023-03-12T07:29:50.281Z,9.10
2023-03-12T07:30:23.708Z,9.00
2023-03-12T07:31:03.016Z,9.00
2023-03-12T07:31:36.118Z,9.00
2023-03-12T07:32:11.378Z,9.00
2023-03-12T07:32:44.931Z,9.00
2023-03-12T07:33:20.683Z,9.00
2023-03-12T07:33:56.710Z,9.00
2023-03-12T07:34:30.201Z,9.00
2023-03-12T07:35:07.012Z,9.00
2023-03-12T07:35:41.096Z,8.90
2023-03-12T07:36:16.361Z,9.00
2023-03-12T07:36:50.814Z,8.90
2023-03-12T07:37:26.350Z,9.00
2023-03-12T07:38:00.357Z,8.90
2023-03-12T07:38:34.859Z,9.00
2023-03-12T07:39:10.005Z,8.90
2023-03-12T07:39:45.162Z,9.00
2023-03-12T07:40:20.481Z,9.00
2023-03-12T07:40:56.541Z,9.00
2023-03-12T07:41:30.613Z,9.00
2023-03-12T07:42:05.041Z,9.00
2023-03-12T07:42:41.266Z,8.90
2023-03-12T07:43:15.140Z,8.90
2023-03-12T07:43:49.478Z,8.90
2023-03-12T07:44:26.954Z,8.90
2023-03-12T07:45:02.008Z,8.90
2023-03-12T07:45:36.485Z,8.90
2023-03-12T07:46:12.349Z,8.90
2023-03-12T07:46:47.080Z,8.90
2023-03-12T07:47:23.971Z,8.90
2023-03-12T07:47:59.145Z,8.90
2023-03-12T07:48:32.552Z,8.90
2023-03-12T07:49:08.389Z,8.90
2023-03-12T07:49:42.949Z,8.90
2023-03-12T07:50:19.413Z,8.90
2023-03-12T07:50:54.155Z,8.90
2023-03-12T07:51:29.386Z,8.80
2023-03-12T07:52:03.734Z,8.80
2023-03-12T07:52:38.349Z,8.80
2023-03-12T07:53:13.323Z,8.80
2023-03-12T07:53:46.694Z,8.80
2023-03-12T07:54:26.205Z,8.80
2023-03-12T07:55:00.683Z,8.80
2023-03-12T07:55:34.814Z,8.70
2023-03-12T07:56:11.851Z,8.70
2023-03-12T07:56:46.197Z,8.70
2023-03-12T07:57:20.784Z,8.70
2023-03-12T07:57:56.693Z,8.70
2023-03-12T07:58:31.073Z,8.70
2023-03-12T07:59:06.243Z,8.70
2023-03-12T07:59:41.237Z,8.70
2023-03-12T08:00:19.564Z,8.70
2023-03-12T08:00:55.368Z,8.70
2023-03-12T08:01:32.882Z,8.70
2023-03-12T08:02:07.747Z,8.70
2023-03-12T08:02:42.592Z,8.70
2023-03-12T08:03:17.373Z,8.60
2023-03-12T08:03:53.517Z,8.60
2023-03-12T08:04:27.591Z,8.60
2023-03-12T08:05:01.053Z,8.70
2023-03-12T08:05:37.783Z,8.70
2023-03-12T08:06:13.010Z,8.70
2023-03-12T08:06:47.925Z,8.70
2023-03-12T08:07:22.324Z,8.70
2023-03-12T08:07:57.154Z,8.70
2023-03-12T08:08:32.215Z,8.70
2023-03-12T08:09:09.367Z,8.70
2023-03-12T08:09:43.190Z,8.70
2023-03-12T08:10:17.820Z,8.70
2023-03-12T08:10:53.239Z,8.70
2023-03-12T08:11:28.248Z,8.70
2023-03-12T08:12:03.976Z,8.70
2023-03-12T08:12:38.756Z,8.70
2023-03-12T08:13:14.298Z,8.70
2023-03-12T08:13:49.966Z,8.70
2023-03-12T08:14:24.959Z,8.60
2023-03-12T08:14:59.299Z,8.60
2023-03-12T08:15:36.793Z,8.60
2023-03-12T08:16:11.099Z,8.60
2023-03-12T08:16:46.629Z,8.60
2023-03-12T08:17:22.619Z,8.60
2023-03-12T08:17:57.140Z,8.70
2023-03-12T08:18:31.169Z,8.60
2023-03-12T08:19:06.499Z,8.60
2023-03-12T08:19:41.333Z,8.60
2023-03-12T08:20:16.085Z,8.60
2023-03-12T08:20:52.553Z,8.60
2023-03-12T08:21:26.721Z,8.60
2023-03-12T08:22:01.672Z,8.60
2023-03-12T08:22:36.263Z,8.60
2023-03-12T08:23:10.670Z,8.60
2023-03-12T08:23:44.588Z,8.60
2023-03-12T08:24:19.738Z,8.60
2023-03-12T08:24:52.993Z,8.60
2023-03-12T08:25:28.466Z,8.60
2023-03-12T08:26:04.026Z,8.70
2023-03-12T08:26:39.012Z,8.60
2023-03-12T08:27:14.247Z,8.70
2023-03-12T08:27:47.958Z,8.70
2023-03-12T08:28:25.094Z,8.70
2023-03-12T08:29:00.439Z,8.70
2023-03-12T08:29:33.721Z,8.70
2023-03-12T08:30:10.692Z,8.70
2023-03-12T08:30:50.053Z,8.80
2023-03-12T08:31:25.113Z,8.80
2023-03-12T08:32:04.963Z,8.80
2023-03-12T08:32:41.360Z,8.80
2023-03-12T08:33:17.570Z,8.80
2023-03-12T08:33:51.985Z,8.80
2023-03-12T08:34:27.195Z,8.90
2023-03-12T08:35:01.714Z,8.90
2023-03-12T08:35:37.869Z,8.90
2023-03-12T08:36:12.204Z,8.90
2023-03-12T08:36:47.915Z,8.90
2023-03-12T08:37:21.554Z,8.80
2023-03-12T08:37:55.377Z,8.80
2023-03-12T08:38:30.743Z,8.80
2023-03-12T08:39:04.449Z,8.80
2023-03-12T08:39:39.616Z,8.80
2023-03-12T08:40:15.716Z,8.80
2023-03-12T08:40:56.553Z,8.80
2023-03-12T08:41:31.611Z,8.80
2023-03-12T08:42:05.801Z,8.80
2023-03-12T08:42:40.747Z,8.80
2023-03-12T08:43:15.750Z,8.80
2023-03-12T08:43:50.580Z,8.90
2023-03-12T08:44:26.339Z,8.90
2023-03-12T08:45:01.565Z,8.90
2023-03-12T08:45:37.028Z,8.90
2023-03-12T08:46:13.883Z,8.90
2023-03-12T08:46:47.707Z,8.90
2023-03-12T08:47:22.645Z,9.00
2023-03-12T08:47:57.450Z,9.00
2023-03-12T08:48:33.386Z,9.00
2023-03-12T08:49:07.732Z,9.00
2023-03-12T08:49:41.784Z,9.00
2023-03-12T08:50:17.845Z,9.10
2023-03-12T08:50:52.379Z,9.10
2023-03-12T08:51:27.399Z,9.10
2023-03-12T08:52:01.936Z,9.10
2023-03-12T08:52:36.860Z,9.10
2023-03-12T08:53:12.662Z,9.10
2023-03-12T08:53:48.139Z,9.10
2023-03-12T08:54:22.193Z,9.20
2023-03-12T08:54:56.880Z,9.10
2023-03-12T08:55:32.182Z,9.10
2023-03-12T08:56:08.410Z,9.10
2023-03-12T08:56:47.377Z,9.10
2023-03-12T08:57:20.400Z,9.10
2023-03-12T08:57:56.443Z,9.10
2023-03-12T08:58:31.279Z,9.10
2023-03-12T08:59:07.208Z,9.10
2023-03-12T08:59:41.902Z,9.10
2023-03-12T09:00:20.645Z,9.20
2023-03-12T09:00:54.636Z,9.10
2023-03-12T09:01:31.701Z,9.10
2023-03-12T09:02:06.889Z,9.10
2023-03-12T09:02:40.794Z,9.10
2023-03-12T09:03:15.183Z,9.10
2023-03-12T09:03:51.751Z,9.10
2023-03-12T09:04:26.508Z,9.20
2023-03-12T09:04:59.949Z,9.20
2023-03-12T09:05:34.953Z,9.20
2023-03-12T09:06:13.990Z,9.20
2023-03-12T09:06:47.312Z,9.20
2023-03-12T09:07:22.912Z,9.20
2023-03-12T09:07:56.286Z,9.20
2023-03-12T09:08:30.532Z,9.20
2023-03-12T09:09:06.367Z,9.20
2023-03-12T09:09:40.770Z,9.20
2023-03-12T09:10:14.089Z,9.20
2023-03-12T09:10:51.434Z,9.10
2023-03-12T09:11:25.124Z,9.10
2023-03-12T09:12:00.157Z,9.20
2023-03-12T09:12:33.919Z,9.20
2023-03-12T09:13:08.100Z,9.20
2023-03-12T09:15:02.484Z,9.20
2023-03-12T09:15:34.385Z,9.20
2023-03-12T09:16:09.831Z,9.20
2023-03-12T09:16:45.175Z,9.20
2023-03-12T09:17:19.805Z,9.10
2023-03-12T09:17:56.441Z,9.20
2023-03-12T09:18:30.480Z,9.20
2023-03-12T09:19:04.462Z,9.20
2023-03-12T09:19:40.799Z,9.20
2023-03-12T09:20:16.172Z,9.20
2023-03-12T09:20:50.989Z,9.20
2023-03-12T09:21:25.870Z,9.20
2023-03-12T09:22:00.257Z,9.20
2023-03-12T09:22:37.550Z,9.20
2023-03-12T09:23:11.287Z,9.20
2023-03-12T09:23:44.586Z,9.20
2023-03-12T09:24:19.958Z,9.20
2023-03-12T09:24:54.072Z,9.10
2023-03-12T09:25:30.076Z,9.10
2023-03-12T09:26:05.544Z,9.10
2023-03-12T09:26:41.770Z,9.10
2023-03-12T09:27:16.534Z,9.10
2023-03-12T09:27:51.340Z,9.20
2023-03-12T09:28:25.757Z,9.20
2023-03-12T09:29:00.619Z,9.20
2023-03-12T09:29:34.165Z,9.20
2023-03-12T09:30:14.828Z,9.20
2023-03-12T09:30:50.496Z,9.20
2023-03-12T09:31:24.642Z,9.20
2023-03-12T09:32:01.080Z,9.20
2023-03-12T09:32:35.432Z,9.20
2023-03-12T09:33:11.300Z,9.20
2023-03-12T09:33:45.741Z,9.30
2023-03-12T09:34:20.737Z,9.20
2023-03-12T09:34:56.343Z,9.20
2023-03-12T09:35:33.481Z,9.20
2023-03-12T09:36:14.470Z,9.20
2023-03-12T09:36:51.326Z,9.20
2023-03-12T09:37:25.373Z,9.20
2023-03-12T09:38:03.398Z,9.20
2023-03-12T09:38:38.601Z,9.20
2023-03-12T09:39:12.648Z,9.20
2023-03-12T09:39:46.580Z,9.20
2023-03-12T09:40:23.317Z,9.20
2023-03-12T09:40:58.649Z,9.30
2023-03-12T09:41:36.485Z,9.30
2023-03-12T09:42:23.586Z,9.30
2023-03-12T09:43:00.341Z,9.20
2023-03-12T09:43:40.425Z,9.30
2023-03-12T09:44:21.644Z,9.30
2023-03-12T09:44:59.039Z,9.20
2023-03-12T09:45:38.458Z,9.30
2023-03-12T09:46:19.288Z,9.30
2023-03-12T09:46:56.681Z,9.30
2023-03-12T09:47:37.549Z,9.30
2023-03-12T09:48:14.541Z,9.30
2023-03-12T09:48:51.668Z,9.30
2023-03-12T09:49:34.067Z,9.30
2023-03-12T09:50:23.819Z,9.30
2023-03-12T09:50:59.396Z,9.30
2023-03-12T09:51:37.889Z,9.30
2023-03-12T09:52:21.953Z,9.20
2023-03-12T09:53:02.048Z,9.20
2023-03-12T09:53:41.745Z,9.20
2023-03-12T09:54:25.152Z,9.20
2023-03-12T09:55:03.430Z,9.20
2023-03-12T09:55:42.116Z,9.20
2023-03-12T09:56:20.211Z,9.20
2023-03-12T09:56:59.438Z,9.20
2023-03-12T09:57:34.089Z,9.20
2023-03-12T09:58:14.204Z,9.20
2023-03-12T09:58:55.244Z,9.20
2023-03-12T09:59:30.235Z,9.20
2023-03-12T10:00:07.986Z,9.30
2023-03-12T10:00:47.639Z,9.30
2023-03-12T10:01:37.953Z,9.30
2023-03-12T10:02:28.697Z,9.30
2023-03-12T10:03:21.730Z,9.20
2023-03-12T10:04:11.939Z,9.30
2023-03-12T10:04:59.375Z,9.30
2023-03-12T10:05:38.757Z,9.30
2023-03-12T10:06:16.089Z,9.20
2023-03-12T10:06:59.236Z,9.20
2023-03-12T10:07:39.682Z,9.20
2023-03-12T10:08:25.399Z,9.20
2023-03-12T10:09:14.290Z,9.20
2023-03-12T10:10:22.027Z,9.20
2023-03-12T10:11:03.668Z,9.20
2023-03-12T10:11:50.370Z,9.20
2023-03-12T10:12:36.629Z,9.20
2023-03-12T10:13:29.117Z,9.10
2023-03-12T10:14:23.773Z,9.20
2023-03-12T10:15:14.619Z,9.20
2023-03-12T10:16:00.649Z,9.20
2023-03-12T10:16:52.538Z,9.20
2023-03-12T10:17:46.559Z,9.20
2023-03-12T10:18:34.590Z,9.30
2023-03-12T10:19:23.047Z,9.30
2023-03-12T10:20:23.470Z,9.30
2023-03-12T10:21:02.679Z,9.20
2023-03-12T10:21:43.979Z,9.30
2023-03-12T10:22:30.643Z,9.30
2023-03-12T10:23:09.987Z,9.30
2023-03-12T10:23:56.827Z,9.30
2023-03-12T10:24:46.266Z,9.30
2023-03-12T10:25:30.380Z,9.30
2023-03-12T10:26:11.279Z,9.30
2023-03-12T10:26:51.143Z,9.30
2023-03-12T10:27:29.957Z,9.30
2023-03-12T10:28:14.832Z,9.30
2023-03-12T10:28:53.913Z,9.30
2023-03-12T10:29:31.261Z,9.30
2023-03-12T10:30:18.085Z,9.30
2023-03-12T10:30:56.093Z,9.20
2023-03-12T10:31:37.345Z,9.20
2023-03-12T10:32:17.351Z,9.30
2023-03-12T10:32:54.705Z,9.30
2023-03-12T10:33:43.970Z,9.30
2023-03-12T10:34:24.341Z,9.30
2023-03-12T10:35:03.182Z,9.30
2023-03-12T10:35:38.012Z,9.30
2023-03-12T10:36:17.833Z,9.30
2023-03-12T10:36:52.498Z,9.30
2023-03-12T10:37:30.172Z,9.30
2023-03-12T10:38:06.037Z,9.40
2023-03-12T10:38:41.146Z,9.40
2023-03-12T10:39:16.710Z,9.40
2023-03-12T10:39:52.199Z,9.40
2023-03-12T10:40:29.614Z,9.40
2023-03-12T10:41:14.497Z,9.40
2023-03-12T10:41:50.597Z,9.50
2023-03-12T10:42:25.834Z,9.50
2023-03-12T10:43:01.503Z,9.50
2023-03-12T10:43:36.486Z,9.50
2023-03-12T10:44:15.192Z,9.50
2023-03-12T10:44:57.240Z,9.50
2023-03-12T10:45:39.628Z,9.60
2023-03-12T10:46:42.598Z,9.60
2023-03-12T10:47:39.030Z,9.60
2023-03-12T10:48:20.977Z,9.60
2023-03-12T10:49:25.574Z,9.60
2023-03-12T10:50:14.834Z,9.50
2023-03-12T10:51:05.336Z,9.60
2023-03-12T10:51:55.264Z,9.60
2023-03-12T10:52:30.184Z,9.60
2023-03-12T10:53:20.916Z,9.60
2023-03-12T10:53:54.700Z,9.60
2023-03-12T10:54:32.993Z,9.60
2023-03-12T10:55:14.100Z,9.60
2023-03-12T10:56:00.862Z,9.60
2023-03-12T10:56:50.048Z,9.60
2023-03-12T10:57:40.541Z,9.60
2023-03-12T10:58:24.598Z,9.60
2023-03-12T10:59:00.693Z,9.50
2023-03-12T10:59:37.186Z,9.50
2023-03-12T11:00:21.558Z,9.50
2023-03-12T11:00:57.486Z,9.50
2023-03-12T11:01:33.060Z,9.50
2023-03-12T11:02:30.894Z,9.50
2023-03-12T11:03:07.673Z,9.50
2023-03-12T11:03:41.497Z,9.50
2023-03-12T11:04:19.626Z,9.60
2023-03-12T11:04:55.202Z,9.60
2023-03-12T11:05:31.635Z,9.60
2023-03-12T11:06:11.916Z,9.60
2023-03-12T11:07:02.832Z,9.60
2023-03-12T11:07:37.751Z,9.60
2023-03-12T11:08:24.077Z,9.60
2023-03-12T11:09:16.704Z,9.60
2023-03-12T11:10:14.617Z,9.60
2023-03-12T11:10:51.083Z,9.60
2023-03-12T11:11:32.642Z,9.60
2023-03-12T11:12:26.448Z,9.60
2023-03-12T11:13:03.962Z,9.60
2023-03-12T11:13:40.194Z,9.60
2023-03-12T11:14:19.367Z,9.60
2023-03-12T11:14:54.456Z,9.60
2023-03-12T11:15:33.160Z,9.60
2023-03-12T11:16:31.885Z,9.60
2023-03-12T13:29:23.054Z,4.40
2023-03-12T13:29:57.857Z,4.40
2023-03-12T13:30:49.034Z,4.30
2023-03-12T13:31:38.370Z,4.20
2023-03-12T13:33:01.978Z,4.20
2023-03-12T13:33:42.227Z,4.10
2023-03-12T13:34:46.590Z,4.10
2023-03-12T13:35:33.861Z,4.00
2023-03-12T13:36:26.483Z,4.00
2023-03-12T13:37:02.360Z,4.00
2023-03-12T13:38:04.470Z,3.90
2023-03-12T13:38:52.900Z,3.90
2023-03-12T13:39:33.309Z,3.90
2023-03-12T13:40:38.837Z,3.90
2023-03-12T13:41:32.967Z,3.90
2023-03-12T13:42:33.160Z,4.00
2023-03-12T13:43:16.243Z,3.90
2023-03-12T13:43:53.381Z,3.90
2023-03-12T13:44:38.659Z,3.90
2023-03-12T13:45:35.578Z,3.90
2023-03-12T13:46:24.393Z,3.90
2023-03-12T13:47:02.800Z,3.80
2023-03-12T13:47:44.584Z,3.80
2023-03-12T13:48:21.759Z,3.80
2023-03-12T13:49:00.961Z,3.80
2023-03-12T13:49:44.586Z,3.70
2023-03-12T13:50:18.848Z,3.70
2023-03-12T13:50:54.705Z,3.70
2023-03-12T13:51:29.892Z,3.60
2023-03-12T13:52:20.282Z,3.60
2023-03-12T13:53:08.656Z,3.60
2023-03-12T13:53:43.761Z,3.50
2023-03-12T13:54:20.088Z,3.50
2023-03-12T13:55:02.908Z,3.50
2023-03-12T13:55:37.957Z,3.50
2023-03-12T13:56:14.206Z,3.40
2023-03-12T13:56:56.918Z,3.50
2023-03-12T13:57:38.842Z,3.50
2023-03-12T13:58:17.145Z,3.40
2023-03-12T13:58:57.239Z,3.40
2023-03-12T13:59:34.530Z,3.40
2023-03-12T14:00:21.352Z,3.40
2023-03-12T14:00:59.047Z,3.30
2023-03-12T14:01:37.648Z,3.30
2023-03-12T14:02:23.590Z,3.30
2023-03-12T14:03:04.450Z,3.20
2023-03-12T14:03:43.906Z,3.20
2023-03-12T14:04:22.975Z,3.20
2023-03-12T14:05:07.610Z,3.20
2023-03-12T14:05:51.630Z,3.20
2023-03-12T14:06:29.477Z,3.20
2023-03-12T14:07:34.561Z,3.10
2023-03-12T14:08:17.589Z,3.10
2023-03-12T14:09:09.663Z,3.10
2023-03-12T14:09:50.710Z,3.10
2023-03-12T14:10:35.736Z,3.10
2023-03-12T14:11:50.436Z,3.10
2023-03-12T14:12:33.442Z,3.10
2023-03-12T14:13:22.668Z,3.10
2023-03-12T14:14:31.760Z,3.20